sensor_id;sensor_type;location;lat;lon;timestamp;P1;durP1;ratioP1;P2;durP2;ratioP2
42768;SDS011;28423;60.010;30.406;2022-08-30T00:00:26;2.80;;;1.20;;
42768;SDS011;28423;60.010;30.406;2022-08-30T00:03:11;2.22;;;1.02;;
42768;SDS011;28423;60.010;30.406;2022-08-30T00:05:39;2.47;;;1.50;;
42768;SDS011;28423;60.010;30.406;2022-08-30T00:08:05;4.70;;;1.60;;
42768;SDS011;28423;60.010;30.406;2022-08-30T00:10:31;3.78;;;1.33;;
42768;SDS011;28423;60.010;30.406;2022-08-30T00:12:57;2.83;;;1.48;;
42768;SDS011;28423;60.010;30.406;2022-08-30T00:15:23;2.53;;;1.52;;
42768;SDS011;28423;60.010;30.406;2022-08-30T00:17:50;5.18;;;1.55;;
42768;SDS011;28423;60.010;30.406;2022-08-30T00:20:18;4.25;;;1.30;;
42768;SDS011;28423;60.010;30.406;2022-08-30T00:22:45;4.85;;;1.40;;
42768;SDS011;28423;60.010;30.406;2022-08-30T00:25:11;2.83;;;1.77;;
42768;SDS011;28423;60.010;30.406;2022-08-30T00:27:37;3.40;;;1.67;;
42768;SDS011;28423;60.010;30.406;2022-08-30T00:30:03;3.35;;;2.15;;
42768;SDS011;28423;60.010;30.406;2022-08-30T00:32:30;4.25;;;1.77;;
42768;SDS011;28423;60.010;30.406;2022-08-30T00:34:56;4.38;;;1.83;;
42768;SDS011;28423;60.010;30.406;2022-08-30T00:37:22;3.17;;;1.75;;
42768;SDS011;28423;60.010;30.406;2022-08-30T00:39:48;2.30;;;1.52;;
42768;SDS011;28423;60.010;30.406;2022-08-30T00:42:15;2.42;;;1.50;;
42768;SDS011;28423;60.010;30.406;2022-08-30T00:44:42;2.45;;;1.40;;
42768;SDS011;28423;60.010;30.406;2022-08-30T00:47:08;2.20;;;1.50;;
42768;SDS011;28423;60.010;30.406;2022-08-30T00:49:35;3.30;;;1.70;;
42768;SDS011;28423;60.010;30.406;2022-08-30T00:52:01;2.42;;;1.60;;
42768;SDS011;28423;60.010;30.406;2022-08-30T00:54:28;4.03;;;1.92;;
42768;SDS011;28423;60.010;30.406;2022-08-30T00:56:55;2.50;;;1.58;;
42768;SDS011;28423;60.010;30.406;2022-08-30T00:59:21;3.28;;;1.77;;
42768;SDS011;28423;60.010;30.406;2022-08-30T01:01:48;3.33;;;1.75;;
42768;SDS011;28423;60.010;30.406;2022-08-30T01:04:14;4.15;;;2.20;;
42768;SDS011;28423;60.010;30.406;2022-08-30T01:06:41;3.42;;;2.00;;
42768;SDS011;28423;60.010;30.406;2022-08-30T01:09:06;2.60;;;1.52;;
42768;SDS011;28423;60.010;30.406;2022-08-30T01:11:33;2.55;;;1.55;;
42768;SDS011;28423;60.010;30.406;2022-08-30T01:14:02;3.50;;;1.77;;
42768;SDS011;28423;60.010;30.406;2022-08-30T01:16:29;3.25;;;1.50;;
42768;SDS011;28423;60.010;30.406;2022-08-30T01:18:57;2.35;;;1.73;;
42768;SDS011;28423;60.010;30.406;2022-08-30T01:21:38;5.13;;;1.70;;
42768;SDS011;28423;60.010;30.406;2022-08-30T01:24:08;2.50;;;1.65;;
42768;SDS011;28423;60.010;30.406;2022-08-30T01:26:34;1.90;;;1.20;;
42768;SDS011;28423;60.010;30.406;2022-08-30T01:29:02;1.85;;;1.13;;
42768;SDS011;28423;60.010;30.406;2022-08-30T01:31:30;2.47;;;1.60;;
42768;SDS011;28423;60.010;30.406;2022-08-30T01:33:56;3.45;;;1.50;;
42768;SDS011;28423;60.010;30.406;2022-08-30T01:36:22;3.80;;;1.60;;
42768;SDS011;28423;60.010;30.406;2022-08-30T01:38:50;3.20;;;1.40;;
42768;SDS011;28423;60.010;30.406;2022-08-30T01:41:19;2.28;;;0.88;;
42768;SDS011;28423;60.010;30.406;2022-08-30T01:43:46;2.80;;;1.45;;
42768;SDS011;28423;60.010;30.406;2022-08-30T01:46:13;2.00;;;1.33;;
42768;SDS011;28423;60.010;30.406;2022-08-30T01:48:42;2.15;;;1.33;;
42768;SDS011;28423;60.010;30.406;2022-08-30T01:51:10;3.92;;;1.98;;
42768;SDS011;28423;60.010;30.406;2022-08-30T01:53:38;3.63;;;1.05;;
42768;SDS011;28423;60.010;30.406;2022-08-30T01:56:05;2.17;;;1.40;;
42768;SDS011;28423;60.010;30.406;2022-08-30T01:58:33;2.25;;;1.42;;
42768;SDS011;28423;60.010;30.406;2022-08-30T02:00:59;2.25;;;1.33;;
42768;SDS011;28423;60.010;30.406;2022-08-30T02:03:26;1.48;;;0.70;;
42768;SDS011;28423;60.010;30.406;2022-08-30T02:06:00;2.47;;;1.05;;
42768;SDS011;28423;60.010;30.406;2022-08-30T02:08:31;1.50;;;0.90;;
42768;SDS011;28423;60.010;30.406;2022-08-30T02:10:57;1.48;;;0.98;;
42768;SDS011;28423;60.010;30.406;2022-08-30T02:13:27;1.58;;;0.85;;
42768;SDS011;28423;60.010;30.406;2022-08-30T02:15:53;1.50;;;0.80;;
42768;SDS011;28423;60.010;30.406;2022-08-30T02:18:19;1.40;;;0.90;;
42768;SDS011;28423;60.010;30.406;2022-08-30T02:20:45;1.33;;;0.80;;
42768;SDS011;28423;60.010;30.406;2022-08-30T02:23:11;1.80;;;0.88;;
42768;SDS011;28423;60.010;30.406;2022-08-30T02:25:37;1.92;;;1.00;;
42768;SDS011;28423;60.010;30.406;2022-08-30T02:28:03;2.75;;;1.10;;
42768;SDS011;28423;60.010;30.406;2022-08-30T02:30:29;1.35;;;0.70;;
42768;SDS011;28423;60.010;30.406;2022-08-30T02:32:55;1.30;;;0.80;;
42768;SDS011;28423;60.010;30.406;2022-08-30T02:35:20;1.27;;;0.73;;
42768;SDS011;28423;60.010;30.406;2022-08-30T02:37:46;1.25;;;0.80;;
42768;SDS011;28423;60.010;30.406;2022-08-30T02:40:12;1.75;;;1.25;;
42768;SDS011;28423;60.010;30.406;2022-08-30T02:42:38;1.98;;;1.10;;
42768;SDS011;28423;60.010;30.406;2022-08-30T02:45:06;2.42;;;1.35;;
42768;SDS011;28423;60.010;30.406;2022-08-30T02:47:32;4.82;;;1.77;;
42768;SDS011;28423;60.010;30.406;2022-08-30T02:49:58;3.55;;;1.50;;
42768;SDS011;28423;60.010;30.406;2022-08-30T02:52:24;2.47;;;1.17;;
42768;SDS011;28423;60.010;30.406;2022-08-30T02:54:49;5.85;;;2.22;;
42768;SDS011;28423;60.010;30.406;2022-08-30T02:57:15;1.80;;;1.17;;
42768;SDS011;28423;60.010;30.406;2022-08-30T02:59:41;2.47;;;1.58;;
42768;SDS011;28423;60.010;30.406;2022-08-30T03:02:10;5.00;;;1.30;;
42768;SDS011;28423;60.010;30.406;2022-08-30T03:04:36;1.92;;;1.38;;
42768;SDS011;28423;60.010;30.406;2022-08-30T03:07:04;2.33;;;1.60;;
42768;SDS011;28423;60.010;30.406;2022-08-30T03:09:30;1.70;;;1.00;;
42768;SDS011;28423;60.010;30.406;2022-08-30T03:11:56;1.92;;;1.15;;
42768;SDS011;28423;60.010;30.406;2022-08-30T03:14:22;2.90;;;1.40;;
42768;SDS011;28423;60.010;30.406;2022-08-30T03:16:48;2.58;;;1.60;;
42768;SDS011;28423;60.010;30.406;2022-08-30T03:19:14;1.75;;;0.95;;
42768;SDS011;28423;60.010;30.406;2022-08-30T03:21:39;1.90;;;1.15;;
42768;SDS011;28423;60.010;30.406;2022-08-30T03:24:05;2.08;;;0.80;;
42768;SDS011;28423;60.010;30.406;2022-08-30T03:26:31;4.10;;;1.17;;
42768;SDS011;28423;60.010;30.406;2022-08-30T03:28:56;2.40;;;0.90;;
42768;SDS011;28423;60.010;30.406;2022-08-30T03:31:23;2.13;;;1.00;;
42768;SDS011;28423;60.010;30.406;2022-08-30T03:33:49;1.92;;;1.17;;
42768;SDS011;28423;60.010;30.406;2022-08-30T03:36:14;4.28;;;1.27;;
42768;SDS011;28423;60.010;30.406;2022-08-30T03:38:40;1.40;;;0.90;;
42768;SDS011;28423;60.010;30.406;2022-08-30T03:41:06;1.50;;;0.77;;
42768;SDS011;28423;60.010;30.406;2022-08-30T03:43:31;2.70;;;0.90;;
42768;SDS011;28423;60.010;30.406;2022-08-30T03:46:00;1.55;;;0.80;;
42768;SDS011;28423;60.010;30.406;2022-08-30T03:48:26;6.53;;;0.85;;
42768;SDS011;28423;60.010;30.406;2022-08-30T03:50:52;1.33;;;0.90;;
42768;SDS011;28423;60.010;30.406;2022-08-30T03:53:18;1.88;;;0.70;;
42768;SDS011;28423;60.010;30.406;2022-08-30T03:55:44;1.60;;;0.80;;
42768;SDS011;28423;60.010;30.406;2022-08-30T03:58:09;3.28;;;0.80;;
42768;SDS011;28423;60.010;30.406;2022-08-30T04:00:35;3.47;;;0.70;;
42768;SDS011;28423;60.010;30.406;2022-08-30T04:03:01;2.80;;;0.60;;
42768;SDS011;28423;60.010;30.406;2022-08-30T04:05:27;1.67;;;0.68;;
42768;SDS011;28423;60.010;30.406;2022-08-30T04:07:53;2.28;;;0.60;;
42768;SDS011;28423;60.010;30.406;2022-08-30T04:10:19;1.90;;;1.00;;
42768;SDS011;28423;60.010;30.406;2022-08-30T04:12:46;1.13;;;0.65;;
42768;SDS011;28423;60.010;30.406;2022-08-30T04:15:12;3.38;;;1.00;;
42768;SDS011;28423;60.010;30.406;2022-08-30T04:17:38;2.90;;;1.00;;
42768;SDS011;28423;60.010;30.406;2022-08-30T04:20:04;1.17;;;0.60;;
42768;SDS011;28423;60.010;30.406;2022-08-30T04:22:31;2.67;;;0.60;;
42768;SDS011;28423;60.010;30.406;2022-08-30T04:24:56;1.45;;;0.63;;
42768;SDS011;28423;60.010;30.406;2022-08-30T04:27:22;1.42;;;0.70;;
42768;SDS011;28423;60.010;30.406;2022-08-30T04:29:48;3.78;;;1.00;;
42768;SDS011;28423;60.010;30.406;2022-08-30T04:32:13;7.40;;;2.20;;
42768;SDS011;28423;60.010;30.406;2022-08-30T04:34:40;2.00;;;0.70;;
42768;SDS011;28423;60.010;30.406;2022-08-30T04:37:05;2.33;;;0.90;;
42768;SDS011;28423;60.010;30.406;2022-08-30T04:39:31;1.65;;;0.80;;
42768;SDS011;28423;60.010;30.406;2022-08-30T04:41:57;2.30;;;0.80;;
42768;SDS011;28423;60.010;30.406;2022-08-30T04:44:22;1.60;;;0.70;;
42768;SDS011;28423;60.010;30.406;2022-08-30T04:46:50;2.78;;;1.15;;
42768;SDS011;28423;60.010;30.406;2022-08-30T04:49:15;1.38;;;0.60;;
42768;SDS011;28423;60.010;30.406;2022-08-30T04:51:41;2.13;;;0.80;;
42768;SDS011;28423;60.010;30.406;2022-08-30T04:54:07;4.30;;;1.00;;
42768;SDS011;28423;60.010;30.406;2022-08-30T04:56:32;5.03;;;0.80;;
42768;SDS011;28423;60.010;30.406;2022-08-30T04:58:59;2.63;;;1.05;;
42768;SDS011;28423;60.010;30.406;2022-08-30T05:01:27;3.53;;;0.73;;
42768;SDS011;28423;60.010;30.406;2022-08-30T05:03:55;2.22;;;0.82;;
42768;SDS011;28423;60.010;30.406;2022-08-30T05:06:22;1.50;;;0.73;;
42768;SDS011;28423;60.010;30.406;2022-08-30T05:08:49;1.98;;;0.90;;
42768;SDS011;28423;60.010;30.406;2022-08-30T05:11:17;1.80;;;1.00;;
42768;SDS011;28423;60.010;30.406;2022-08-30T05:13:43;1.42;;;0.77;;
42768;SDS011;28423;60.010;30.406;2022-08-30T05:16:09;1.30;;;0.63;;
42768;SDS011;28423;60.010;30.406;2022-08-30T05:18:37;0.75;;;0.60;;
42768;SDS011;28423;60.010;30.406;2022-08-30T05:21:04;2.53;;;0.85;;
42768;SDS011;28423;60.010;30.406;2022-08-30T05:23:31;1.73;;;0.95;;
42768;SDS011;28423;60.010;30.406;2022-08-30T05:25:56;5.63;;;0.93;;
42768;SDS011;28423;60.010;30.406;2022-08-30T05:28:22;2.08;;;0.90;;
42768;SDS011;28423;60.010;30.406;2022-08-30T05:30:48;1.63;;;0.90;;
42768;SDS011;28423;60.010;30.406;2022-08-30T05:33:13;2.55;;;1.08;;
42768;SDS011;28423;60.010;30.406;2022-08-30T05:35:39;1.38;;;0.90;;
42768;SDS011;28423;60.010;30.406;2022-08-30T05:38:05;3.58;;;0.82;;
42768;SDS011;28423;60.010;30.406;2022-08-30T05:40:30;3.40;;;0.98;;
42768;SDS011;28423;60.010;30.406;2022-08-30T05:42:56;1.33;;;0.70;;
42768;SDS011;28423;60.010;30.406;2022-08-30T05:45:22;2.00;;;1.00;;
42768;SDS011;28423;60.010;30.406;2022-08-30T05:47:48;2.97;;;0.90;;
42768;SDS011;28423;60.010;30.406;2022-08-30T05:50:13;2.40;;;0.90;;
42768;SDS011;28423;60.010;30.406;2022-08-30T05:52:40;3.15;;;0.90;;
42768;SDS011;28423;60.010;30.406;2022-08-30T05:55:07;4.45;;;1.27;;
42768;SDS011;28423;60.010;30.406;2022-08-30T05:57:34;2.58;;;1.13;;
42768;SDS011;28423;60.010;30.406;2022-08-30T06:00:03;6.55;;;1.40;;
42768;SDS011;28423;60.010;30.406;2022-08-30T06:02:37;2.58;;;1.17;;
42768;SDS011;28423;60.010;30.406;2022-08-30T06:05:03;3.30;;;1.45;;
42768;SDS011;28423;60.010;30.406;2022-08-30T06:07:29;2.05;;;1.20;;
42768;SDS011;28423;60.010;30.406;2022-08-30T06:09:55;4.80;;;1.00;;
42768;SDS011;28423;60.010;30.406;2022-08-30T06:12:20;3.10;;;1.05;;
42768;SDS011;28423;60.010;30.406;2022-08-30T06:14:46;7.93;;;1.40;;
42768;SDS011;28423;60.010;30.406;2022-08-30T06:17:11;3.00;;;1.10;;
42768;SDS011;28423;60.010;30.406;2022-08-30T06:19:37;1.90;;;1.13;;
42768;SDS011;28423;60.010;30.406;2022-08-30T06:22:03;1.63;;;0.90;;
42768;SDS011;28423;60.010;30.406;2022-08-30T06:24:29;0.98;;;0.57;;
42768;SDS011;28423;60.010;30.406;2022-08-30T06:26:54;3.63;;;1.20;;
42768;SDS011;28423;60.010;30.406;2022-08-30T06:29:20;2.55;;;1.33;;
42768;SDS011;28423;60.010;30.406;2022-08-30T06:31:46;3.92;;;1.35;;
42768;SDS011;28423;60.010;30.406;2022-08-30T06:34:12;2.30;;;1.00;;
42768;SDS011;28423;60.010;30.406;2022-08-30T06:36:38;1.95;;;0.98;;
42768;SDS011;28423;60.010;30.406;2022-08-30T06:39:05;4.00;;;1.45;;
42768;SDS011;28423;60.010;30.406;2022-08-30T06:41:32;1.85;;;1.30;;
42768;SDS011;28423;60.010;30.406;2022-08-30T06:43:59;3.10;;;1.00;;
42768;SDS011;28423;60.010;30.406;2022-08-30T06:46:27;2.00;;;0.95;;
42768;SDS011;28423;60.010;30.406;2022-08-30T06:48:54;3.10;;;1.05;;
42768;SDS011;28423;60.010;30.406;2022-08-30T06:51:22;4.32;;;1.10;;
42768;SDS011;28423;60.010;30.406;2022-08-30T06:53:48;2.42;;;0.80;;
42768;SDS011;28423;60.010;30.406;2022-08-30T06:56:15;2.40;;;1.17;;
42768;SDS011;28423;60.010;30.406;2022-08-30T06:58:41;3.13;;;0.70;;
42768;SDS011;28423;60.010;30.406;2022-08-30T07:01:11;2.20;;;1.10;;
42768;SDS011;28423;60.010;30.406;2022-08-30T07:03:38;1.90;;;0.95;;
42768;SDS011;28423;60.010;30.406;2022-08-30T07:06:04;3.40;;;1.00;;
42768;SDS011;28423;60.010;30.406;2022-08-30T07:08:30;3.38;;;0.60;;
42768;SDS011;28423;60.010;30.406;2022-08-30T07:10:56;2.28;;;1.05;;
42768;SDS011;28423;60.010;30.406;2022-08-30T07:13:22;2.58;;;0.90;;
42768;SDS011;28423;60.010;30.406;2022-08-30T07:15:48;1.63;;;1.10;;
42768;SDS011;28423;60.010;30.406;2022-08-30T07:18:15;1.95;;;1.13;;
42768;SDS011;28423;60.010;30.406;2022-08-30T07:21:05;3.00;;;1.10;;
42768;SDS011;28423;60.010;30.406;2022-08-30T07:23:35;1.67;;;0.85;;
42768;SDS011;28423;60.010;30.406;2022-08-30T07:26:05;2.22;;;0.93;;
42768;SDS011;28423;60.010;30.406;2022-08-30T07:28:32;1.23;;;0.65;;
42768;SDS011;28423;60.010;30.406;2022-08-30T07:30:59;2.80;;;0.85;;
42768;SDS011;28423;60.010;30.406;2022-08-30T07:33:24;1.50;;;0.75;;
42768;SDS011;28423;60.010;30.406;2022-08-30T07:35:50;2.22;;;1.13;;
42768;SDS011;28423;60.010;30.406;2022-08-30T07:38:16;1.38;;;0.80;;
42768;SDS011;28423;60.010;30.406;2022-08-30T07:40:42;4.40;;;1.15;;
42768;SDS011;28423;60.010;30.406;2022-08-30T07:43:07;2.33;;;0.95;;
42768;SDS011;28423;60.010;30.406;2022-08-30T07:45:33;4.85;;;1.20;;
42768;SDS011;28423;60.010;30.406;2022-08-30T07:47:59;2.78;;;1.15;;
42768;SDS011;28423;60.010;30.406;2022-08-30T07:50:24;3.05;;;0.82;;
42768;SDS011;28423;60.010;30.406;2022-08-30T07:52:50;2.58;;;0.98;;
42768;SDS011;28423;60.010;30.406;2022-08-30T07:55:15;2.67;;;1.00;;
42768;SDS011;28423;60.010;30.406;2022-08-30T07:57:41;4.15;;;1.00;;
42768;SDS011;28423;60.010;30.406;2022-08-30T08:00:07;3.25;;;1.25;;
42768;SDS011;28423;60.010;30.406;2022-08-30T08:02:37;1.88;;;0.88;;
42768;SDS011;28423;60.010;30.406;2022-08-30T08:05:05;2.28;;;1.05;;
42768;SDS011;28423;60.010;30.406;2022-08-30T08:07:32;4.18;;;1.00;;
42768;SDS011;28423;60.010;30.406;2022-08-30T08:09:59;2.38;;;1.10;;
42768;SDS011;28423;60.010;30.406;2022-08-30T08:12:24;3.53;;;0.90;;
42768;SDS011;28423;60.010;30.406;2022-08-30T08:14:50;4.55;;;1.20;;
42768;SDS011;28423;60.010;30.406;2022-08-30T08:17:16;2.78;;;0.98;;
42768;SDS011;28423;60.010;30.406;2022-08-30T08:19:41;2.25;;;1.10;;
42768;SDS011;28423;60.010;30.406;2022-08-30T08:22:07;2.22;;;1.17;;
42768;SDS011;28423;60.010;30.406;2022-08-30T08:24:33;3.63;;;1.35;;
42768;SDS011;28423;60.010;30.406;2022-08-30T08:26:58;5.32;;;1.98;;
42768;SDS011;28423;60.010;30.406;2022-08-30T08:29:24;4.03;;;1.40;;
42768;SDS011;28423;60.010;30.406;2022-08-30T08:31:52;2.90;;;0.98;;
42768;SDS011;28423;60.010;30.406;2022-08-30T08:34:18;6.97;;;1.33;;
42768;SDS011;28423;60.010;30.406;2022-08-30T08:36:47;1.42;;;0.82;;
42768;SDS011;28423;60.010;30.406;2022-08-30T08:39:13;4.03;;;1.15;;
42768;SDS011;28423;60.010;30.406;2022-08-30T08:42:27;4.13;;;1.33;;
42768;SDS011;28423;60.010;30.406;2022-08-30T08:47:11;2.38;;;0.98;;
42768;SDS011;28423;60.010;30.406;2022-08-30T08:49:37;4.57;;;1.23;;
42768;SDS011;28423;60.010;30.406;2022-08-30T08:52:07;4.20;;;1.13;;
42768;SDS011;28423;60.010;30.406;2022-08-30T08:54:54;2.80;;;0.63;;
42768;SDS011;28423;60.010;30.406;2022-08-30T08:57:26;6.43;;;0.95;;
42768;SDS011;28423;60.010;30.406;2022-08-30T08:59:57;2.80;;;0.93;;
42768;SDS011;28423;60.010;30.406;2022-08-30T09:02:24;10.80;;;1.08;;
42768;SDS011;28423;60.010;30.406;2022-08-30T09:04:55;2.22;;;1.10;;
42768;SDS011;28423;60.010;30.406;2022-08-30T09:07:24;3.90;;;1.15;;
42768;SDS011;28423;60.010;30.406;2022-08-30T09:09:52;2.78;;;0.98;;
42768;SDS011;28423;60.010;30.406;2022-08-30T09:12:18;7.88;;;1.00;;
42768;SDS011;28423;60.010;30.406;2022-08-30T09:14:52;1.67;;;0.73;;
42768;SDS011;28423;60.010;30.406;2022-08-30T09:17:20;4.28;;;1.02;;
42768;SDS011;28423;60.010;30.406;2022-08-30T09:24:58;1.85;;;1.08;;
42768;SDS011;28423;60.010;30.406;2022-08-30T09:27:36;3.65;;;1.00;;
42768;SDS011;28423;60.010;30.406;2022-08-30T09:32:33;3.10;;;0.95;;
42768;SDS011;28423;60.010;30.406;2022-08-30T09:35:02;1.48;;;0.77;;
42768;SDS011;28423;60.010;30.406;2022-08-30T09:40:12;2.95;;;0.88;;
42768;SDS011;28423;60.010;30.406;2022-08-30T09:42:40;5.90;;;0.70;;
42768;SDS011;28423;60.010;30.406;2022-08-30T09:45:09;6.32;;;1.08;;
42768;SDS011;28423;60.010;30.406;2022-08-30T09:47:43;3.75;;;0.70;;
42768;SDS011;28423;60.010;30.406;2022-08-30T09:50:10;1.33;;;0.70;;
42768;SDS011;28423;60.010;30.406;2022-08-30T09:52:44;1.90;;;0.80;;
42768;SDS011;28423;60.010;30.406;2022-08-30T10:00:28;3.92;;;0.90;;
42768;SDS011;28423;60.010;30.406;2022-08-30T10:02:58;3.60;;;0.90;;
42768;SDS011;28423;60.010;30.406;2022-08-30T10:11:51;2.42;;;0.90;;
42768;SDS011;28423;60.010;30.406;2022-08-30T10:22:18;2.78;;;0.77;;
42768;SDS011;28423;60.010;30.406;2022-08-30T10:24:50;1.98;;;0.80;;
42768;SDS011;28423;60.010;30.406;2022-08-30T10:27:22;5.30;;;1.55;;
42768;SDS011;28423;60.010;30.406;2022-08-30T10:29:56;1.95;;;0.68;;
42768;SDS011;28423;60.010;30.406;2022-08-30T10:35:20;3.83;;;1.48;;
42768;SDS011;28423;60.010;30.406;2022-08-30T10:37:57;1.42;;;0.50;;
42768;SDS011;28423;60.010;30.406;2022-08-30T10:40:31;5.10;;;1.10;;
42768;SDS011;28423;60.010;30.406;2022-08-30T10:45:57;4.32;;;1.10;;
42768;SDS011;28423;60.010;30.406;2022-08-30T10:48:30;2.17;;;0.93;;
42768;SDS011;28423;60.010;30.406;2022-08-30T10:51:03;6.00;;;1.13;;
42768;SDS011;28423;60.010;30.406;2022-08-30T10:53:42;7.80;;;1.20;;
42768;SDS011;28423;60.010;30.406;2022-08-30T10:56:11;4.78;;;1.30;;
42768;SDS011;28423;60.010;30.406;2022-08-30T10:58:40;2.75;;;1.10;;
42768;SDS011;28423;60.010;30.406;2022-08-30T11:10:20;3.35;;;0.90;;
42768;SDS011;28423;60.010;30.406;2022-08-30T11:15:30;1.90;;;0.90;;
42768;SDS011;28423;60.010;30.406;2022-08-30T11:18:01;4.47;;;1.35;;
42768;SDS011;28423;60.010;30.406;2022-08-30T11:20:29;3.22;;;1.42;;
42768;SDS011;28423;60.010;30.406;2022-08-30T11:23:30;5.05;;;1.20;;
42768;SDS011;28423;60.010;30.406;2022-08-30T11:25:55;2.70;;;0.90;;
42768;SDS011;28423;60.010;30.406;2022-08-30T11:31:41;5.93;;;1.65;;
42768;SDS011;28423;60.010;30.406;2022-08-30T11:33:52;1.10;;;0.68;;
42768;SDS011;28423;60.010;30.406;2022-08-30T11:41:36;7.78;;;2.22;;
42768;SDS011;28423;60.010;30.406;2022-08-30T11:46:46;1.02;;;0.70;;
42768;SDS011;28423;60.010;30.406;2022-08-30T12:00:27;2.17;;;0.70;;
42768;SDS011;28423;60.010;30.406;2022-08-30T12:03:01;3.92;;;0.60;;
42768;SDS011;28423;60.010;30.406;2022-08-30T12:10:57;10.75;;;1.08;;
42768;SDS011;28423;60.010;30.406;2022-08-30T12:16:02;3.67;;;0.95;;
42768;SDS011;28423;60.010;30.406;2022-08-30T12:21:12;1.02;;;0.70;;
42768;SDS011;28423;60.010;30.406;2022-08-30T12:23:49;4.72;;;1.13;;
42768;SDS011;28423;60.010;30.406;2022-08-30T12:28:50;6.95;;;1.00;;
42768;SDS011;28423;60.010;30.406;2022-08-30T12:31:22;3.45;;;0.88;;
42768;SDS011;28423;60.010;30.406;2022-08-30T12:33:54;1.35;;;0.52;;
42768;SDS011;28423;60.010;30.406;2022-08-30T12:39:19;2.70;;;1.08;;
42768;SDS011;28423;60.010;30.406;2022-08-30T12:41:48;1.92;;;0.73;;
42768;SDS011;28423;60.010;30.406;2022-08-30T12:44:24;4.07;;;0.85;;
42768;SDS011;28423;60.010;30.406;2022-08-30T12:46:59;2.72;;;0.90;;
42768;SDS011;28423;60.010;30.406;2022-08-30T12:49:29;2.38;;;0.90;;
42768;SDS011;28423;60.010;30.406;2022-08-30T12:52:13;5.07;;;0.90;;
42768;SDS011;28423;60.010;30.406;2022-08-30T12:54:41;3.75;;;0.65;;
42768;SDS011;28423;60.010;30.406;2022-08-30T12:57:07;2.38;;;0.73;;
42768;SDS011;28423;60.010;30.406;2022-08-30T13:02:19;1.92;;;0.90;;
42768;SDS011;28423;60.010;30.406;2022-08-30T13:04:47;4.93;;;0.68;;
42768;SDS011;28423;60.010;30.406;2022-08-30T13:07:27;0.77;;;0.50;;
42768;SDS011;28423;60.010;30.406;2022-08-30T13:10:14;2.88;;;0.60;;
42768;SDS011;28423;60.010;30.406;2022-08-30T13:12:56;6.38;;;1.17;;
42768;SDS011;28423;60.010;30.406;2022-08-30T13:15:28;2.13;;;0.73;;
42768;SDS011;28423;60.010;30.406;2022-08-30T13:21:11;3.53;;;0.85;;
42768;SDS011;28423;60.010;30.406;2022-08-30T13:23:54;2.42;;;1.05;;
42768;SDS011;28423;60.010;30.406;2022-08-30T13:26:25;2.60;;;0.80;;
42768;SDS011;28423;60.010;30.406;2022-08-30T13:31:22;4.82;;;1.20;;
42768;SDS011;28423;60.010;30.406;2022-08-30T13:33:49;2.20;;;1.35;;
42768;SDS011;28423;60.010;30.406;2022-08-30T13:36:18;6.57;;;1.30;;
42768;SDS011;28423;60.010;30.406;2022-08-30T13:38:45;9.02;;;1.85;;
42768;SDS011;28423;60.010;30.406;2022-08-30T13:41:14;4.75;;;1.80;;
42768;SDS011;28423;60.010;30.406;2022-08-30T13:43:40;4.05;;;1.40;;
42768;SDS011;28423;60.010;30.406;2022-08-30T13:46:06;2.95;;;1.30;;
42768;SDS011;28423;60.010;30.406;2022-08-30T13:48:33;5.07;;;2.20;;
42768;SDS011;28423;60.010;30.406;2022-08-30T13:50:59;2.25;;;1.33;;
42768;SDS011;28423;60.010;30.406;2022-08-30T13:53:24;3.60;;;0.95;;
42768;SDS011;28423;60.010;30.406;2022-08-30T13:55:50;7.25;;;1.80;;
42768;SDS011;28423;60.010;30.406;2022-08-30T13:58:16;1.00;;;0.80;;
42768;SDS011;28423;60.010;30.406;2022-08-30T14:00:42;3.55;;;1.83;;
42768;SDS011;28423;60.010;30.406;2022-08-30T14:03:10;3.33;;;2.00;;
42768;SDS011;28423;60.010;30.406;2022-08-30T14:05:37;4.13;;;1.98;;
42768;SDS011;28423;60.010;30.406;2022-08-30T14:08:04;1.85;;;1.33;;
42768;SDS011;28423;60.010;30.406;2022-08-30T14:10:31;8.82;;;2.50;;
42768;SDS011;28423;60.010;30.406;2022-08-30T14:12:57;4.47;;;2.60;;
42768;SDS011;28423;60.010;30.406;2022-08-30T14:15:23;5.03;;;1.83;;
42768;SDS011;28423;60.010;30.406;2022-08-30T14:17:49;5.13;;;2.60;;
42768;SDS011;28423;60.010;30.406;2022-08-30T14:20:15;6.05;;;2.78;;
42768;SDS011;28423;60.010;30.406;2022-08-30T14:22:40;10.45;;;3.47;;
42768;SDS011;28423;60.010;30.406;2022-08-30T14:25:06;6.10;;;2.42;;
42768;SDS011;28423;60.010;30.406;2022-08-30T14:27:32;4.05;;;2.20;;
42768;SDS011;28423;60.010;30.406;2022-08-30T14:29:58;9.85;;;3.05;;
42768;SDS011;28423;60.010;30.406;2022-08-30T14:32:23;7.15;;;2.35;;
42768;SDS011;28423;60.010;30.406;2022-08-30T14:34:49;5.38;;;2.40;;
42768;SDS011;28423;60.010;30.406;2022-08-30T14:37:15;13.38;;;3.17;;
42768;SDS011;28423;60.010;30.406;2022-08-30T14:39:41;10.18;;;3.00;;
42768;SDS011;28423;60.010;30.406;2022-08-30T14:42:07;6.82;;;3.33;;
42768;SDS011;28423;60.010;30.406;2022-08-30T14:44:33;10.32;;;3.10;;
42768;SDS011;28423;60.010;30.406;2022-08-30T14:46:59;5.57;;;2.85;;
42768;SDS011;28423;60.010;30.406;2022-08-30T14:49:25;3.78;;;1.88;;
42768;SDS011;28423;60.010;30.406;2022-08-30T14:51:51;2.30;;;1.40;;
42768;SDS011;28423;60.010;30.406;2022-08-30T14:54:18;3.10;;;1.67;;
42768;SDS011;28423;60.010;30.406;2022-08-30T14:56:48;4.72;;;2.05;;
42768;SDS011;28423;60.010;30.406;2022-08-30T14:59:14;2.42;;;1.63;;
42768;SDS011;28423;60.010;30.406;2022-08-30T15:01:40;5.55;;;2.55;;
42768;SDS011;28423;60.010;30.406;2022-08-30T15:04:07;4.07;;;2.45;;
42768;SDS011;28423;60.010;30.406;2022-08-30T15:06:34;6.22;;;2.03;;
42768;SDS011;28423;60.010;30.406;2022-08-30T15:09:00;3.25;;;2.25;;
42768;SDS011;28423;60.010;30.406;2022-08-30T15:11:26;6.00;;;2.30;;
42768;SDS011;28423;60.010;30.406;2022-08-30T15:13:52;4.30;;;1.90;;
42768;SDS011;28423;60.010;30.406;2022-08-30T15:16:20;5.93;;;2.00;;
42768;SDS011;28423;60.010;30.406;2022-08-30T15:18:48;2.28;;;1.35;;
42768;SDS011;28423;60.010;30.406;2022-08-30T15:21:20;4.55;;;2.05;;
42768;SDS011;28423;60.010;30.406;2022-08-30T15:23:48;3.20;;;1.90;;
42768;SDS011;28423;60.010;30.406;2022-08-30T15:26:14;3.70;;;1.27;;
42768;SDS011;28423;60.010;30.406;2022-08-30T15:28:39;5.60;;;2.55;;
42768;SDS011;28423;60.010;30.406;2022-08-30T15:31:05;2.00;;;1.40;;
42768;SDS011;28423;60.010;30.406;2022-08-30T15:33:31;1.60;;;1.10;;
42768;SDS011;28423;60.010;30.406;2022-08-30T15:36:00;2.78;;;1.42;;
42768;SDS011;28423;60.010;30.406;2022-08-30T15:38:26;7.05;;;2.60;;
42768;SDS011;28423;60.010;30.406;2022-08-30T15:40:52;4.72;;;2.75;;
42768;SDS011;28423;60.010;30.406;2022-08-30T15:43:18;3.22;;;2.00;;
42768;SDS011;28423;60.010;30.406;2022-08-30T15:45:44;10.45;;;2.60;;
42768;SDS011;28423;60.010;30.406;2022-08-30T15:48:09;3.65;;;1.77;;
42768;SDS011;28423;60.010;30.406;2022-08-30T15:50:35;2.92;;;1.55;;
42768;SDS011;28423;60.010;30.406;2022-08-30T15:53:01;4.82;;;2.20;;
42768;SDS011;28423;60.010;30.406;2022-08-30T15:55:27;2.75;;;1.60;;
42768;SDS011;28423;60.010;30.406;2022-08-30T15:57:53;3.72;;;2.50;;
42768;SDS011;28423;60.010;30.406;2022-08-30T16:00:18;3.80;;;1.80;;
42768;SDS011;28423;60.010;30.406;2022-08-30T16:02:44;3.35;;;1.95;;
42768;SDS011;28423;60.010;30.406;2022-08-30T16:05:13;5.20;;;2.70;;
42768;SDS011;28423;60.010;30.406;2022-08-30T16:07:39;4.10;;;2.72;;
42768;SDS011;28423;60.010;30.406;2022-08-30T16:10:05;3.33;;;2.33;;
42768;SDS011;28423;60.010;30.406;2022-08-30T16:12:31;2.47;;;1.70;;